createdAt,value
2022-08-12T00:01:11.804Z,6.63
2022-08-12T00:03:57.344Z,7.10
2022-08-12T00:09:29.739Z,7.00
2022-08-12T00:12:15.233Z,7.45
2022-08-12T00:17:49.520Z,6.78
2022-08-12T00:20:35.383Z,6.65
2022-08-12T00:23:21.877Z,6.90
2022-08-12T00:26:22.320Z,6.57
2022-08-12T00:29:14.072Z,7.18
2022-08-12T00:32:01.313Z,6.85
2022-08-12T00:34:51.854Z,6.75
2022-08-12T00:37:40.870Z,6.68
2022-08-12T00:40:32.316Z,6.78
2022-08-12T00:43:00.020Z,6.72
2022-08-12T00:45:27.211Z,6.90
2022-08-12T00:47:54.264Z,6.88
2022-08-12T00:50:23.257Z,7.10
2022-08-12T00:52:54.503Z,7.32
2022-08-12T00:55:21.875Z,6.82
2022-08-12T00:57:50.767Z,6.35
2022-08-12T01:00:24.580Z,6.18
2022-08-12T01:02:57.691Z,6.97
2022-08-12T01:05:45.130Z,6.88
2022-08-12T01:08:31.112Z,6.95
2022-08-12T01:11:33.827Z,6.53
2022-08-12T01:14:02.289Z,6.78
2022-08-12T01:16:30.039Z,6.90
2022-08-12T01:18:58.671Z,6.80
2022-08-12T01:21:44.172Z,6.20
2022-08-12T01:24:30.772Z,6.60
2022-08-12T01:27:00.122Z,6.28
2022-08-12T01:29:33.115Z,6.40
2022-08-12T01:32:08.729Z,6.50
2022-08-12T01:34:39.706Z,6.28
2022-08-12T01:37:08.977Z,6.38
2022-08-12T01:40:34.202Z,6.50
2022-08-12T01:42:43.524Z,6.25
2022-08-12T01:45:12.617Z,5.97
2022-08-12T01:48:09.057Z,6.68
2022-08-12T01:51:00.468Z,6.45
2022-08-12T01:53:50.368Z,6.55
2022-08-12T01:56:24.199Z,6.20
2022-08-12T01:59:13.187Z,6.22
2022-08-12T02:01:41.703Z,6.38
2022-08-12T02:04:46.661Z,6.68
2022-08-12T02:07:59.736Z,6.32
2022-08-12T02:10:52.104Z,6.68
2022-08-12T02:13:41.795Z,5.80
2022-08-12T02:16:45.460Z,6.60
2022-08-12T02:19:47.327Z,6.22
2022-08-12T02:22:39.068Z,6.10
2022-08-12T02:25:13.659Z,6.10
2022-08-12T02:27:52.494Z,6.55
2022-08-12T02:30:41.568Z,6.28
2022-08-12T02:33:10.264Z,6.07
2022-08-12T02:35:39.901Z,6.53
2022-08-12T02:38:09.869Z,5.85
2022-08-12T02:40:40.293Z,6.78
2022-08-12T02:43:31.335Z,6.55
2022-08-12T02:46:03.769Z,6.70
2022-08-12T02:48:44.385Z,6.70
2022-08-12T02:51:13.892Z,6.38
2022-08-12T02:53:41.342Z,6.38
2022-08-12T02:56:08.444Z,6.10
2022-08-12T02:58:36.520Z,6.20
2022-08-12T03:01:11.542Z,6.70
2022-08-12T03:03:40.647Z,6.88
2022-08-12T03:06:12.731Z,6.07
2022-08-12T03:08:46.075Z,6.78
2022-08-12T03:11:42.657Z,6.38
2022-08-12T03:14:14.541Z,6.32
2022-08-12T03:16:42.133Z,6.75
2022-08-12T03:19:09.202Z,6.60
2022-08-12T03:21:52.739Z,6.40
2022-08-12T03:24:27.536Z,6.68
2022-08-12T03:26:55.520Z,5.93
2022-08-12T03:29:30.991Z,6.10
2022-08-12T03:32:04.680Z,6.15
2022-08-12T03:34:35.612Z,7.22
2022-08-12T03:37:05.106Z,6.85
2022-08-12T03:39:38.645Z,6.75
2022-08-12T03:42:09.459Z,6.55
2022-08-12T03:45:12.003Z,6.43
2022-08-12T03:48:19.222Z,7.10
2022-08-12T03:51:06.799Z,6.10
2022-08-12T03:53:53.164Z,6.72
2022-08-12T03:56:38.505Z,6.38
2022-08-12T03:59:26.134Z,6.43
2022-08-12T04:01:57.819Z,7.05
2022-08-12T04:04:34.109Z,13.63
2022-08-12T04:07:04.205Z,16.75
2022-08-12T04:09:32.019Z,10.15
2022-08-12T04:12:17.315Z,8.85
2022-08-12T04:17:14.501Z,6.97
2022-08-12T04:19:42.427Z,7.53
2022-08-12T04:22:12.825Z,7.03
2022-08-12T04:24:41.536Z,7.18
2022-08-12T04:27:11.326Z,7.80
2022-08-12T04:30:20.951Z,7.35
2022-08-12T04:32:31.232Z,7.38
2022-08-12T04:34:59.204Z,6.82
2022-08-12T04:37:26.477Z,7.60
2022-08-12T04:39:54.297Z,6.78
2022-08-12T04:42:21.875Z,7.30
2022-08-12T04:44:49.093Z,7.07
2022-08-12T04:47:17.592Z,6.70
2022-08-12T04:49:48.309Z,7.40
2022-08-12T04:52:15.804Z,8.13
2022-08-12T04:54:44.244Z,7.28
2022-08-12T04:57:11.370Z,7.32
2022-08-12T04:59:47.922Z,6.63
2022-08-12T05:02:20.912Z,6.88
2022-08-12T05:04:52.006Z,6.25
2022-08-12T05:07:20.655Z,7.65
2022-08-12T05:10:00.161Z,7.18
2022-08-12T05:12:45.088Z,7.03
2022-08-12T05:15:27.717Z,6.90
2022-08-12T05:18:00.167Z,6.63
2022-08-12T05:20:29.859Z,6.90
2022-08-12T05:23:14.983Z,6.93
2022-08-12T05:25:43.453Z,6.50
2022-08-12T05:28:13.281Z,6.63
2022-08-12T05:30:42.662Z,6.05
2022-08-12T05:33:11.703Z,6.60
2022-08-12T05:35:42.059Z,6.97
2022-08-12T05:38:34.524Z,6.40
2022-08-12T05:41:07.154Z,6.43
2022-08-12T05:43:35.970Z,6.18
2022-08-12T05:46:03.411Z,6.00
2022-08-12T05:48:33.514Z,7.00
2022-08-12T05:51:01.222Z,6.45
2022-08-12T05:53:31.037Z,6.68
2022-08-12T05:55:59.385Z,6.93
2022-08-12T05:58:27.996Z,7.18
2022-08-12T06:00:56.967Z,6.50
2022-08-12T06:03:25.655Z,7.18
2022-08-12T06:05:55.447Z,7.05
2022-08-12T06:08:25.071Z,6.63
2022-08-12T06:10:52.698Z,6.72
2022-08-12T06:13:26.861Z,6.70
2022-08-12T06:16:07.907Z,7.10
2022-08-12T06:18:35.034Z,6.43
2022-08-12T06:21:02.585Z,6.97
2022-08-12T06:23:30.516Z,7.45
2022-08-12T06:25:58.964Z,6.15
2022-08-12T06:28:26.317Z,6.82
2022-08-12T06:31:22.704Z,6.45
2022-08-12T06:33:57.812Z,6.80
2022-08-12T06:36:33.359Z,6.93
2022-08-12T06:39:01.246Z,7.30
2022-08-12T06:42:02.574Z,7.28
2022-08-12T06:47:00.930Z,7.63
2022-08-12T06:49:28.827Z,6.43
2022-08-12T06:51:56.699Z,6.80
2022-08-12T06:54:31.204Z,7.50
2022-08-12T06:57:05.388Z,7.43
2022-08-12T06:59:51.234Z,8.25
2022-08-12T07:02:20.730Z,7.45
2022-08-12T07:04:47.621Z,7.53
2022-08-12T07:07:15.076Z,7.55
2022-08-12T07:10:04.464Z,6.97
2022-08-12T07:12:30.179Z,7.95
2022-08-12T07:14:58.629Z,7.57
2022-08-12T07:17:37.425Z,7.22
2022-08-12T07:20:29.852Z,6.97
2022-08-12T07:23:00.538Z,7.75
2022-08-12T07:25:41.180Z,6.82
2022-08-12T07:28:16.810Z,6.93
2022-08-12T07:30:48.592Z,6.90
2022-08-12T07:33:16.989Z,7.45
2022-08-12T07:35:45.689Z,6.80
2022-08-12T07:38:29.721Z,7.18
2022-08-12T07:41:17.443Z,7.38
2022-08-12T07:43:47.610Z,7.15
2022-08-12T07:46:18.803Z,7.43
2022-08-12T07:48:51.984Z,7.32
2022-08-12T07:51:24.983Z,7.50
2022-08-12T07:54:00.299Z,7.22
2022-08-12T07:56:34.507Z,7.55
2022-08-12T07:59:03.099Z,7.38
2022-08-12T08:01:33.147Z,7.00
2022-08-12T08:04:19.665Z,6.93
2022-08-12T08:06:48.314Z,6.82
2022-08-12T08:09:19.670Z,7.63
2022-08-12T08:12:04.841Z,7.88
2022-08-12T08:14:32.693Z,7.03
2022-08-12T08:17:01.527Z,8.10
2022-08-12T08:19:29.301Z,6.95
2022-08-12T08:21:58.785Z,7.15
2022-08-12T08:24:28.129Z,6.97
2022-08-12T08:26:57.220Z,7.05
2022-08-12T08:29:24.520Z,7.28
2022-08-12T08:31:54.987Z,7.13
2022-08-12T08:34:47.133Z,7.50
2022-08-12T08:37:15.374Z,6.78
2022-08-12T08:39:43.744Z,7.85
2022-08-12T08:42:28.902Z,7.80
2022-08-12T08:47:25.871Z,6.97
2022-08-12T08:49:52.923Z,6.95
2022-08-12T08:52:38.534Z,7.45
2022-08-12T08:55:09.737Z,7.30
2022-08-12T08:57:43.762Z,7.18
2022-08-12T09:00:19.491Z,7.53
2022-08-12T09:02:49.150Z,7.07
2022-08-12T09:05:26.117Z,7.30
2022-08-12T09:08:09.077Z,6.57
2022-08-12T09:10:45.328Z,7.35
2022-08-12T09:13:29.455Z,7.32
2022-08-12T09:19:05.659Z,7.15
2022-08-12T09:21:54.726Z,7.75
2022-08-12T09:24:20.044Z,7.10
2022-08-12T09:26:48.191Z,6.93
2022-08-12T09:29:20.343Z,7.47
2022-08-12T09:32:09.436Z,7.22
2022-08-12T09:34:42.687Z,6.93
2022-08-12T09:37:20.206Z,6.55
2022-08-12T09:40:03.158Z,6.35
2022-08-12T09:43:16.994Z,7.00
2022-08-12T09:46:11.745Z,6.82
2022-08-12T09:48:36.289Z,7.53
2022-08-12T09:51:17.230Z,6.85
2022-08-12T09:54:05.540Z,7.53
2022-08-12T09:57:01.094Z,7.55
2022-08-12T10:00:13.349Z,6.85
2022-08-12T10:02:45.821Z,6.35
2022-08-12T10:05:00.618Z,7.20
2022-08-12T10:07:39.609Z,7.28
2022-08-12T10:10:23.071Z,7.28
2022-08-12T10:13:36.884Z,8.05
2022-08-12T10:16:06.396Z,7.65
2022-08-12T10:18:52.011Z,7.25
2022-08-12T10:21:35.483Z,8.02
2022-08-12T10:24:08.871Z,8.05
2022-08-12T10:26:56.579Z,7.90
2022-08-12T10:30:01.683Z,7.68
2022-08-12T10:32:45.174Z,7.75
2022-08-12T10:35:16.755Z,8.45
2022-08-12T10:38:38.403Z,7.43
2022-08-12T10:40:34.034Z,8.43
2022-08-12T10:43:22.949Z,7.38
2022-08-12T10:45:58.266Z,8.43
2022-08-12T10:48:34.162Z,8.20
2022-08-12T10:52:04.804Z,8.68
2022-08-12T10:54:00.775Z,8.02
2022-08-12T10:56:34.165Z,8.23
2022-08-12T10:59:05.617Z,8.00
2022-08-12T11:04:31.999Z,8.80
2022-08-12T11:04:41.454Z,7.75
2022-08-12T11:08:34.355Z,8.02
2022-08-12T11:10:02.716Z,7.82
2022-08-12T11:12:55.505Z,7.93
2022-08-12T11:15:32.692Z,8.68
2022-08-12T11:18:03.129Z,8.02
2022-08-12T11:20:31.438Z,7.75
2022-08-12T11:23:04.085Z,7.97
2022-08-12T11:25:58.162Z,8.30
2022-08-12T11:28:33.769Z,8.52
2022-08-12T11:31:02.645Z,8.32
2022-08-12T11:34:04.921Z,8.88
2022-08-12T11:36:22.054Z,8.50
2022-08-12T11:38:51.444Z,8.02
2022-08-12T11:41:31.216Z,8.35
2022-08-12T11:44:04.279Z,7.70
2022-08-12T11:46:51.298Z,8.35
2022-08-12T11:49:30.564Z,7.93
2022-08-12T11:51:59.306Z,8.65
2022-08-12T11:54:26.214Z,8.35
2022-08-12T11:57:02.337Z,8.63
2022-08-12T12:02:20.773Z,8.55
2022-08-12T12:04:53.909Z,8.90
2022-08-12T12:08:38.742Z,8.32
2022-08-12T12:10:13.494Z,8.38
2022-08-12T12:12:50.294Z,8.55
2022-08-12T12:15:25.188Z,8.65
2022-08-12T12:18:05.575Z,8.80
2022-08-12T12:20:34.949Z,8.13
2022-08-12T12:23:01.837Z,8.07
2022-08-12T12:26:06.869Z,8.73
2022-08-12T12:28:36.662Z,8.60
2022-08-12T12:31:04.183Z,8.40
2022-08-12T12:33:56.723Z,8.27
2022-08-12T12:36:26.385Z,9.07
2022-08-12T12:38:57.117Z,8.70
2022-08-12T12:42:41.574Z,8.30
2022-08-12T12:44:38.412Z,8.68
2022-08-12T12:47:05.290Z,9.07
2022-08-12T12:49:53.527Z,7.53
2022-08-12T12:52:27.033Z,8.73
2022-08-12T12:54:58.932Z,8.98
2022-08-12T12:57:36.306Z,9.00
2022-08-12T13:00:15.573Z,7.90
2022-08-12T13:02:54.361Z,8.45
2022-08-12T13:05:27.612Z,8.60
2022-08-12T13:08:00.664Z,8.10
2022-08-12T13:10:37.030Z,8.65
2022-08-12T13:14:07.524Z,8.48
2022-08-12T13:16:00.595Z,7.65
2022-08-12T13:18:36.558Z,8.13
2022-08-12T13:21:15.498Z,7.05
2022-08-12T13:23:59.596Z,7.70
2022-08-12T13:26:33.112Z,8.02
2022-08-12T13:29:03.895Z,7.25
2022-08-12T13:31:30.894Z,7.65
2022-08-12T13:34:29.569Z,8.13
2022-08-12T13:36:51.464Z,8.00
2022-08-12T13:39:21.409Z,7.78
2022-08-12T13:41:51.799Z,8.25
2022-08-12T13:44:20.867Z,7.45
2022-08-12T13:46:58.138Z,7.97
2022-08-12T13:49:54.104Z,7.72
2022-08-12T13:52:13.799Z,7.90
2022-08-12T13:54:40.975Z,7.60
2022-08-12T13:57:11.029Z,7.90
2022-08-12T13:59:48.739Z,7.97
2022-08-12T14:02:24.305Z,7.90
2022-08-12T14:04:56.170Z,8.23
2022-08-12T14:07:27.664Z,8.07
2022-08-12T14:10:16.135Z,7.85
2022-08-12T14:12:54.562Z,8.10
2022-08-12T14:15:36.497Z,7.47
2022-08-12T14:18:19.270Z,8.20
2022-08-12T14:21:00.819Z,7.50
2022-08-12T14:24:04.430Z,7.85
2022-08-12T14:26:26.267Z,7.30
2022-08-12T14:28:57.188Z,8.30
2022-08-12T14:31:29.612Z,7.75
2022-08-12T14:33:59.450Z,7.95
2022-08-12T14:36:26.959Z,8.18
2022-08-12T14:38:55.277Z,8.18
2022-08-12T14:41:36.664Z,8.60
2022-08-12T14:44:58.143Z,8.25
2022-08-12T14:46:55.800Z,9.45
2022-08-12T14:50:01.032Z,8.23
2022-08-12T14:53:45.838Z,8.75
2022-08-12T14:57:58.622Z,8.48
2022-08-12T15:00:52.412Z,8.65
2022-08-12T15:03:26.280Z,9.18
2022-08-12T15:06:43.527Z,8.88
2022-08-12T15:09:06.622Z,9.48
2022-08-12T15:11:55.725Z,9.60
2022-08-12T15:14:25.268Z,9.15
2022-08-12T15:16:53.270Z,9.45
2022-08-12T15:20:11.265Z,8.55
2022-08-12T15:22:38.560Z,8.98
2022-08-12T15:24:54.409Z,8.73
2022-08-12T15:27:22.447Z,8.70
2022-08-12T15:29:58.985Z,8.60
2022-08-12T15:32:32.411Z,8.73
2022-08-12T15:35:00.770Z,9.45
2022-08-12T15:38:08.798Z,8.48
2022-08-12T15:40:15.641Z,9.18
2022-08-12T15:42:59.950Z,8.93
2022-08-12T15:45:31.982Z,8.52
2022-08-12T15:48:16.180Z,10.57
2022-08-12T15:51:12.885Z,9.73
2022-08-12T15:54:33.077Z,9.05
2022-08-12T15:57:08.214Z,9.82
2022-08-12T16:00:04.384Z,9.70
2022-08-12T16:02:32.256Z,9.63
2022-08-12T16:05:30.822Z,8.98
2022-08-12T16:07:51.765Z,9.23
2022-08-12T16:10:20.551Z,10.18
2022-08-12T16:12:58.183Z,10.07
2022-08-12T16:15:29.603Z,9.90
2022-08-12T16:18:18.477Z,10.20
2022-08-12T16:20:47.715Z,10.43
2022-08-12T16:23:26.234Z,9.38
2022-08-12T16:26:05.473Z,9.70
2022-08-12T16:28:41.458Z,9.82
2022-08-12T16:31:13.273Z,10.38
2022-08-12T16:33:59.613Z,10.50
2022-08-12T16:39:01.572Z,9.88
2022-08-12T16:41:33.521Z,10.17
2022-08-12T16:44:12.974Z,10.63
2022-08-12T16:46:58.081Z,9.93
2022-08-12T16:49:25.593Z,10.90
2022-08-12T16:51:53.154Z,10.60
2022-08-12T16:54:26.659Z,10.93
2022-08-12T16:57:09.904Z,11.23
2022-08-12T16:59:54.394Z,11.23
2022-08-12T17:02:33.605Z,10.45
2022-08-12T17:05:04.898Z,11.70
2022-08-12T17:07:43.824Z,9.95
2022-08-12T17:10:36.904Z,11.05
2022-08-12T17:13:10.189Z,11.45
2022-08-12T17:15:50.653Z,10.57
2022-08-12T17:18:43.461Z,11.02
2022-08-12T17:21:07.573Z,11.18
2022-08-12T17:23:48.445Z,10.98
2022-08-12T17:26:22.836Z,10.55
2022-08-12T17:32:01.007Z,10.50
2022-08-12T17:34:38.611Z,10.98
2022-08-12T17:37:08.291Z,10.65
2022-08-12T17:39:37.276Z,11.30
2022-08-12T17:42:34.392Z,10.63
2022-08-12T17:45:17.942Z,10.73
2022-08-12T17:48:01.451Z,11.18
2022-08-12T17:50:36.146Z,10.07
2022-08-12T17:53:04.746Z,10.57
2022-08-12T17:55:43.482Z,11.18
2022-08-12T17:58:18.790Z,11.05
2022-08-12T18:00:50.753Z,10.40
2022-08-12T18:04:04.602Z,10.52
2022-08-12T18:06:14.044Z,10.43
2022-08-12T18:08:54.160Z,10.50
2022-08-12T18:12:05.746Z,10.40
2022-08-12T18:14:30.041Z,11.07
2022-08-12T18:17:00.319Z,11.25
2022-08-12T18:20:03.590Z,10.70
2022-08-12T18:22:21.977Z,11.35
2022-08-12T18:25:05.138Z,12.27
2022-08-12T18:27:44.511Z,11.15
2022-08-12T18:30:20.292Z,10.43
2022-08-12T18:32:59.369Z,11.13
2022-08-12T18:35:47.703Z,10.90
2022-08-12T18:38:25.918Z,10.80
2022-08-12T18:44:01.261Z,10.88
2022-08-12T18:46:47.217Z,11.55
2022-08-12T18:49:21.578Z,10.95
2022-08-12T18:52:02.211Z,11.43
2022-08-12T18:54:34.492Z,10.55
2022-08-12T18:57:15.459Z,11.57
2022-08-12T18:59:59.827Z,10.93
2022-08-12T19:02:36.076Z,12.23
2022-08-12T19:05:10.319Z,11.25
2022-08-12T19:08:01.520Z,11.18
2022-08-12T19:10:32.370Z,13.40
2022-08-12T19:13:23.923Z,11.88
2022-08-12T19:15:54.322Z,14.88
2022-08-12T19:18:31.318Z,12.10
2022-08-12T19:21:12.018Z,12.30
2022-08-12T19:24:04.785Z,11.73
2022-08-12T19:26:35.763Z,11.70
2022-08-12T19:29:08.236Z,11.90
2022-08-12T19:31:58.662Z,11.35
2022-08-12T19:38:04.332Z,11.18
2022-08-12T19:40:32.485Z,11.68
2022-08-12T19:43:19.303Z,11.45
2022-08-12T19:45:57.370Z,11.30
2022-08-12T19:48:30.315Z,12.30
2022-08-12T19:50:58.424Z,11.02
2022-08-12T19:53:30.283Z,11.52
2022-08-12T19:56:17.512Z,11.32
2022-08-12T19:58:46.143Z,12.25
2022-08-12T20:01:17.719Z,11.45
2022-08-12T20:03:48.168Z,12.68
2022-08-12T20:06:29.291Z,11.23
2022-08-12T20:08:58.461Z,11.27
2022-08-12T20:12:09.071Z,10.65
2022-08-12T20:14:19.492Z,11.38
2022-08-12T20:16:57.906Z,10.60
2022-08-12T20:20:05.500Z,11.50
2022-08-12T20:22:24.143Z,11.38
2022-08-12T20:25:07.464Z,10.57
2022-08-12T20:28:04.370Z,11.13
2022-08-12T20:30:53.698Z,11.13
2022-08-12T20:33:17.413Z,10.70
2022-08-12T20:36:06.258Z,10.85
2022-08-12T20:38:36.236Z,10.60
2022-08-12T20:41:16.140Z,10.73
2022-08-12T20:43:45.153Z,10.57
2022-08-12T20:46:13.672Z,9.75
2022-08-12T20:48:54.581Z,10.52
2022-08-12T20:51:24.776Z,9.75
2022-08-12T20:53:58.881Z,9.63
2022-08-12T20:56:34.587Z,9.95
2022-08-12T20:59:14.872Z,9.82
2022-08-12T21:04:45.622Z,10.02
2022-08-12T21:07:16.145Z,9.48
2022-08-12T21:09:48.243Z,9.18
2022-08-12T21:12:28.040Z,10.23
2022-08-12T21:15:24.048Z,10.43
2022-08-12T21:18:15.499Z,8.63
2022-08-12T21:20:53.085Z,6.97
2022-08-12T21:23:22.715Z,7.22
2022-08-12T21:25:56.258Z,7.35
2022-08-12T21:28:27.744Z,7.05
2022-08-12T21:32:38.077Z,7.68
2022-08-12T21:34:08.761Z,8.00
2022-08-12T21:36:43.333Z,8.35
2022-08-12T21:39:21.267Z,8.85
2022-08-12T21:41:51.908Z,8.35
2022-08-12T21:44:24.554Z,8.15
2022-08-12T21:47:21.755Z,7.88
2022-08-12T21:50:03.149Z,9.35
2022-08-12T21:52:41.005Z,7.60
2022-08-12T21:55:18.639Z,7.43
2022-08-12T21:57:54.632Z,7.45
2022-08-12T22:00:36.874Z,7.40
2022-08-12T22:04:01.723Z,7.70
2022-08-12T22:06:30.707Z,7.00
2022-08-12T22:09:15.250Z,7.28
2022-08-12T22:11:56.214Z,6.47
2022-08-12T22:14:26.297Z,7.25
2022-08-12T22:16:56.066Z,7.13
2022-08-12T22:19:24.267Z,6.78
2022-08-12T22:21:55.594Z,6.63
2022-08-12T22:24:27.180Z,7.53
2022-08-12T22:27:08.076Z,7.57
2022-08-12T22:30:07.881Z,7.55
2022-08-12T22:32:50.604Z,6.93
2022-08-12T22:35:56.705Z,8.93
2022-08-12T22:38:25.427Z,7.15
2022-08-12T22:41:00.702Z,7.63
2022-08-12T22:44:00.738Z,7.38
2022-08-12T22:46:53.104Z,7.00
2022-08-12T22:49:36.970Z,7.38
2022-08-12T22:52:18.712Z,7.45
2022-08-12T22:55:03.319Z,7.45
2022-08-12T22:57:49.455Z,7.30
2022-08-12T23:00:24.507Z,7.95
2022-08-12T23:02:58.369Z,7.72
2022-08-12T23:05:57.654Z,8.48
2022-08-12T23:08:17.882Z,7.38
2022-08-12T23:10:46.534Z,7.35
2022-08-12T23:13:42.885Z,7.97
2022-08-12T23:16:27.832Z,7.53
2022-08-12T23:19:09.317Z,7.85
2022-08-12T23:22:06.602Z,8.15
2022-08-12T23:24:37.121Z,8.02
2022-08-12T23:27:23.980Z,7.78
2022-08-12T23:30:18.755Z,7.07
2022-08-12T23:32:54.204Z,7.30
2022-08-12T23:35:22.395Z,6.97
2022-08-12T23:37:54.660Z,6.88
2022-08-12T23:40:24.446Z,6.20
2022-08-12T23:42:54.318Z,6.35
2022-08-12T23:45:31.692Z,6.55
2022-08-12T23:48:01.974Z,7.15
2022-08-12T23:50:34.139Z,6.55
2022-08-12T23:53:22.420Z,6.57
2022-08-12T23:55:55.777Z,6.72
2022-08-12T23:58:28.223Z,7.55
